createdAt,value
2023-08-28T00:01:19.540Z,13.13
2023-08-28T00:04:10.536Z,13.75
2023-08-28T00:06:59.442Z,13.70
2023-08-28T00:09:48.444Z,14.10
2023-08-28T00:12:41.993Z,13.35
2023-08-28T00:15:30.868Z,13.45
2023-08-28T00:18:20.341Z,14.15
2023-08-28T00:21:10.891Z,13.70
2023-08-28T00:23:59.927Z,13.88
2023-08-28T00:26:49.850Z,13.30
2023-08-28T00:29:38.873Z,13.13
2023-08-28T00:32:28.778Z,13.65
2023-08-28T00:35:18.148Z,14.40
2023-08-28T00:38:08.539Z,13.93
2023-08-28T00:40:57.581Z,14.45
2023-08-28T00:43:46.518Z,14.35
2023-08-28T00:46:36.340Z,15.38
2023-08-28T00:49:25.765Z,14.73
2023-08-28T00:52:15.201Z,14.50
2023-08-28T00:55:06.120Z,14.18
2023-08-28T00:57:55.581Z,13.50
2023-08-28T01:00:44.899Z,14.93
2023-08-28T01:03:34.365Z,14.60
2023-08-28T01:06:32.433Z,14.20
2023-08-28T01:09:42.329Z,13.55
2023-08-28T01:12:41.243Z,13.77
2023-08-28T01:15:32.649Z,13.05
2023-08-28T01:18:22.264Z,13.65
2023-08-28T01:21:12.142Z,12.45
2023-08-28T01:24:06.389Z,11.63
2023-08-28T01:26:56.796Z,11.23
2023-08-28T01:29:45.947Z,7.30
2023-08-28T01:32:35.592Z,6.10
2023-08-28T01:35:27.656Z,5.78
2023-08-28T01:38:26.805Z,4.93
2023-08-28T01:41:20.008Z,4.72
2023-08-28T01:44:11.223Z,4.43
2023-08-28T01:47:01.121Z,4.22
2023-08-28T01:49:50.000Z,4.57
2023-08-28T01:52:39.499Z,4.28
2023-08-28T01:56:06.031Z,3.60
2023-08-28T01:58:57.275Z,3.63
2023-08-28T02:01:47.914Z,3.75
2023-08-28T02:04:37.291Z,3.47
2023-08-28T02:07:26.323Z,3.60
2023-08-28T02:10:15.289Z,3.53
2023-08-28T02:13:05.470Z,3.90
2023-08-28T02:15:54.630Z,3.17
2023-08-28T02:18:44.778Z,3.70
2023-08-28T02:21:33.747Z,4.00
2023-08-28T02:24:22.784Z,3.47
2023-08-28T02:27:11.825Z,3.70
2023-08-28T02:30:01.160Z,3.65
2023-08-28T02:32:50.237Z,3.42
2023-08-28T02:35:41.207Z,4.05
2023-08-28T02:38:30.125Z,4.03
2023-08-28T02:41:19.006Z,3.45
2023-08-28T02:44:08.474Z,3.90
2023-08-28T02:46:57.515Z,3.53
2023-08-28T02:49:46.317Z,3.70
2023-08-28T02:52:36.670Z,3.65
2023-08-28T02:55:25.772Z,3.70
2023-08-28T02:58:14.982Z,3.83
2023-08-28T03:01:04.073Z,3.75
2023-08-28T03:03:53.298Z,3.65
2023-08-28T03:06:43.057Z,4.25
2023-08-28T03:09:34.995Z,3.75
2023-08-28T03:12:23.952Z,4.10
2023-08-28T03:15:12.864Z,4.40
2023-08-28T03:18:02.122Z,4.18
2023-08-28T03:20:51.178Z,4.00
2023-08-28T03:23:40.513Z,4.32
2023-08-28T03:26:31.960Z,4.40
2023-08-28T03:29:21.204Z,4.80
2023-08-28T03:32:10.113Z,4.55
2023-08-28T03:34:59.010Z,4.78
2023-08-28T03:37:47.739Z,4.97
2023-08-28T03:40:37.669Z,5.32
2023-08-28T03:43:28.444Z,5.53
2023-08-28T03:46:17.440Z,5.35
2023-08-28T03:49:06.449Z,5.38
2023-08-28T03:51:56.188Z,5.65
2023-08-28T03:54:45.185Z,4.95
2023-08-28T03:57:36.360Z,5.47
2023-08-28T04:00:27.605Z,5.25
2023-08-28T04:03:17.094Z,5.57
2023-08-28T04:06:05.882Z,5.65
2023-08-28T04:08:55.040Z,5.72
2023-08-28T04:11:44.624Z,5.50
2023-08-28T04:14:33.726Z,5.50
2023-08-28T04:17:24.502Z,5.80
2023-08-28T04:20:15.662Z,6.13
2023-08-28T04:23:05.230Z,5.50
2023-08-28T04:25:54.632Z,6.00
2023-08-28T04:28:43.604Z,5.43
2023-08-28T04:31:32.689Z,5.70
2023-08-28T04:34:23.512Z,6.30
2023-08-28T04:37:12.391Z,5.88
2023-08-28T04:40:01.998Z,5.30
2023-08-28T04:42:52.869Z,6.07
2023-08-28T04:45:45.760Z,5.93
2023-08-28T04:48:34.967Z,5.90
2023-08-28T04:51:26.166Z,5.50
2023-08-28T04:54:15.246Z,5.85
2023-08-28T04:57:04.788Z,5.32
2023-08-28T04:59:53.698Z,5.18
2023-08-28T05:02:46.264Z,4.68
2023-08-28T05:05:35.382Z,5.10
2023-08-28T05:08:26.527Z,5.20
2023-08-28T05:11:15.481Z,5.00
2023-08-28T05:14:05.030Z,5.07
2023-08-28T05:16:54.165Z,4.50
2023-08-28T05:19:43.307Z,4.60
2023-08-28T05:22:32.618Z,4.22
2023-08-28T05:25:23.078Z,4.50
2023-08-28T05:28:12.474Z,4.63
2023-08-28T05:31:01.657Z,4.22
2023-08-28T05:33:50.808Z,4.80
2023-08-28T05:36:39.965Z,4.40
2023-08-28T05:39:28.884Z,4.55
2023-08-28T05:42:19.783Z,4.68
2023-08-28T05:45:10.851Z,4.25
2023-08-28T05:47:59.826Z,4.28
2023-08-28T05:50:52.284Z,4.55
2023-08-28T05:53:44.548Z,3.97
2023-08-28T05:56:33.964Z,4.70
2023-08-28T05:59:24.662Z,4.45
2023-08-28T06:02:14.332Z,4.90
2023-08-28T06:05:03.745Z,3.88
2023-08-28T06:07:52.647Z,3.75
2023-08-28T06:10:43.399Z,3.80
2023-08-28T06:13:34.255Z,4.13
2023-08-28T06:16:24.814Z,3.83
2023-08-28T06:19:13.725Z,3.65
2023-08-28T06:22:06.154Z,3.85
2023-08-28T06:24:55.050Z,3.70
2023-08-28T06:27:44.568Z,3.60
2023-08-28T06:30:34.369Z,3.40
2023-08-28T06:33:25.142Z,3.22
2023-08-28T06:36:14.173Z,3.30
2023-08-28T06:39:04.215Z,3.42
2023-08-28T06:41:53.168Z,3.65
2023-08-28T06:44:43.245Z,3.20
2023-08-28T06:47:32.768Z,3.10
2023-08-28T06:50:23.287Z,3.40
2023-08-28T06:53:12.253Z,3.10
2023-08-28T06:56:01.304Z,2.72
2023-08-28T06:58:50.262Z,2.90
2023-08-28T07:01:42.362Z,3.40
2023-08-28T07:04:31.236Z,2.72
2023-08-28T07:07:21.810Z,3.30
2023-08-28T07:10:11.030Z,3.28
2023-08-28T07:13:00.072Z,3.65
2023-08-28T07:15:58.823Z,3.80
2023-08-28T07:18:47.978Z,3.85
2023-08-28T07:21:36.911Z,4.00
2023-08-28T07:24:27.021Z,4.43
2023-08-28T07:27:15.897Z,4.30
2023-08-28T07:30:05.660Z,4.00
2023-08-28T07:32:54.777Z,4.40
2023-08-28T07:35:48.339Z,3.95
2023-08-28T07:38:37.923Z,4.60
2023-08-28T07:41:28.593Z,4.50
2023-08-28T07:44:17.716Z,4.20
2023-08-28T07:47:07.992Z,4.32
2023-08-28T07:49:57.110Z,4.47
2023-08-28T07:52:46.299Z,4.18
2023-08-28T07:55:35.487Z,5.50
2023-08-28T07:58:25.829Z,5.20
2023-08-28T08:01:14.669Z,4.70
2023-08-28T08:04:04.250Z,4.40
2023-08-28T08:06:53.226Z,4.82
2023-08-28T08:09:42.590Z,5.07
2023-08-28T08:12:31.523Z,4.53
2023-08-28T08:15:22.333Z,4.55
2023-08-28T08:18:11.364Z,4.78
2023-08-28T08:21:00.578Z,4.70
2023-08-28T08:23:50.406Z,4.85
2023-08-28T08:26:39.651Z,5.05
2023-08-28T08:29:29.219Z,4.95
2023-08-28T08:32:20.116Z,5.22
2023-08-28T08:35:11.491Z,4.90
2023-08-28T08:38:01.629Z,5.13
2023-08-28T08:40:54.549Z,5.18
2023-08-28T08:43:43.939Z,5.13
2023-08-28T08:46:33.573Z,4.47
2023-08-28T08:49:28.528Z,4.20
2023-08-28T08:52:20.330Z,4.43
2023-08-28T08:55:19.007Z,4.90
2023-08-28T08:58:12.939Z,4.35
2023-08-28T09:01:04.116Z,4.32
2023-08-28T09:03:53.676Z,3.88
2023-08-28T09:06:44.812Z,3.72
2023-08-28T09:09:34.496Z,3.55
2023-08-28T09:12:23.771Z,3.72
2023-08-28T09:15:13.394Z,3.90
2023-08-28T09:18:04.242Z,3.67
2023-08-28T09:21:09.104Z,3.72
2023-08-28T09:24:01.268Z,11.13
2023-08-28T09:26:54.370Z,6.47
2023-08-28T09:29:43.400Z,3.80
2023-08-28T09:32:32.433Z,3.33
2023-08-28T09:35:22.743Z,3.78
2023-08-28T09:38:12.606Z,3.85
2023-08-28T09:41:04.651Z,3.65
2023-08-28T09:43:53.659Z,3.90
2023-08-28T09:46:44.536Z,3.67
2023-08-28T09:49:34.867Z,3.70
2023-08-28T09:52:27.428Z,3.47
2023-08-28T09:55:16.318Z,3.78
2023-08-28T09:58:12.430Z,3.80
2023-08-28T10:01:01.803Z,3.50
2023-08-28T10:03:51.708Z,3.55
2023-08-28T10:06:47.188Z,3.42
2023-08-28T10:09:36.944Z,3.58
2023-08-28T10:12:29.613Z,3.38
2023-08-28T10:15:21.105Z,3.72
2023-08-28T10:18:14.713Z,3.67
2023-08-28T10:21:04.264Z,3.80
2023-08-28T10:23:54.472Z,3.70
2023-08-28T10:26:45.319Z,3.00
2023-08-28T10:29:36.851Z,3.65
2023-08-28T10:32:28.064Z,3.70
2023-08-28T10:35:19.098Z,3.55
2023-08-28T10:38:08.682Z,3.30
2023-08-28T10:41:00.801Z,3.17
2023-08-28T10:43:51.486Z,3.55
2023-08-28T10:46:41.677Z,3.80
2023-08-28T10:49:32.564Z,3.30
2023-08-28T10:52:21.905Z,3.65
2023-08-28T10:55:12.383Z,3.75
2023-08-28T10:58:04.556Z,3.10
2023-08-28T11:01:13.096Z,3.15
2023-08-28T11:04:02.807Z,3.40
2023-08-28T11:06:53.287Z,3.60
2023-08-28T11:09:43.159Z,3.45
2023-08-28T11:12:51.424Z,3.47
2023-08-28T11:15:43.363Z,3.70
2023-08-28T11:18:32.990Z,3.65
2023-08-28T11:21:26.969Z,3.35
2023-08-28T11:24:26.853Z,3.90
2023-08-28T11:27:33.990Z,3.67
2023-08-28T11:30:24.422Z,3.90
2023-08-28T11:33:13.767Z,3.63
2023-08-28T11:36:03.047Z,3.63
2023-08-28T11:38:52.251Z,3.95
2023-08-28T11:41:45.034Z,4.47
2023-08-28T11:44:35.133Z,4.22
2023-08-28T11:47:27.771Z,3.88
2023-08-28T11:50:16.917Z,3.40
2023-08-28T11:53:06.392Z,3.95
2023-08-28T11:55:56.150Z,3.70
2023-08-28T11:58:47.443Z,3.60
2023-08-28T12:01:37.132Z,3.90
2023-08-28T12:04:26.418Z,3.90
2023-08-28T12:07:19.403Z,4.00
2023-08-28T12:10:09.528Z,3.83
2023-08-28T12:13:00.674Z,3.60
2023-08-28T12:15:51.201Z,3.60
2023-08-28T12:18:51.608Z,3.80
2023-08-28T12:21:43.481Z,4.07
2023-08-28T12:24:33.156Z,3.92
2023-08-28T12:27:28.796Z,5.28
2023-08-28T12:30:21.658Z,5.60
2023-08-28T12:33:12.175Z,6.15
2023-08-28T12:36:05.594Z,5.55
2023-08-28T12:38:55.409Z,5.70
2023-08-28T12:41:51.434Z,5.78
2023-08-28T12:44:42.581Z,4.97
2023-08-28T12:47:31.885Z,5.15
2023-08-28T12:50:24.443Z,7.15
2023-08-28T12:53:13.559Z,8.10
2023-08-28T12:56:03.007Z,8.95
2023-08-28T12:58:52.140Z,5.85
2023-08-28T13:01:44.171Z,6.10
2023-08-28T13:04:34.171Z,6.93
2023-08-28T13:07:24.688Z,6.82
2023-08-28T13:10:13.618Z,7.03
2023-08-28T13:13:02.783Z,7.50
2023-08-28T13:15:52.137Z,7.13
2023-08-28T13:18:41.351Z,7.07
2023-08-28T13:21:38.369Z,6.93
2023-08-28T13:24:37.912Z,7.32
2023-08-28T13:27:33.090Z,9.82
2023-08-28T13:30:22.387Z,7.40
2023-08-28T13:33:11.463Z,7.50
2023-08-28T13:36:00.465Z,7.75
2023-08-28T13:38:49.971Z,7.70
2023-08-28T13:41:41.497Z,7.55
2023-08-28T13:44:31.765Z,8.85
2023-08-28T13:47:20.959Z,8.15
2023-08-28T13:50:10.870Z,7.20
2023-08-28T13:52:59.944Z,7.97
2023-08-28T13:55:49.770Z,8.10
2023-08-28T13:58:43.309Z,7.95
2023-08-28T14:01:32.575Z,8.40
2023-08-28T14:04:21.573Z,7.60
2023-08-28T14:07:10.625Z,8.52
2023-08-28T14:09:59.548Z,8.48
2023-08-28T14:12:49.706Z,8.38
2023-08-28T14:15:40.232Z,8.45
2023-08-28T14:18:29.141Z,7.85
2023-08-28T14:21:18.401Z,9.13
2023-08-28T14:24:09.446Z,8.68
2023-08-28T14:26:58.474Z,7.82
2023-08-28T14:29:47.550Z,7.65
2023-08-28T14:32:38.113Z,7.97
2023-08-28T14:35:27.184Z,8.45
2023-08-28T14:38:16.257Z,8.27
2023-08-28T14:41:05.350Z,7.72
2023-08-28T14:43:54.317Z,7.85
2023-08-28T14:46:43.467Z,7.80
2023-08-28T14:49:33.997Z,7.60
2023-08-28T14:52:22.899Z,8.85
2023-08-28T14:55:11.769Z,9.13
2023-08-28T14:58:00.747Z,7.63
2023-08-28T15:00:55.167Z,9.02
2023-08-28T15:03:45.474Z,7.82
2023-08-28T15:06:35.999Z,7.60
2023-08-28T15:09:25.277Z,8.18
2023-08-28T15:12:15.017Z,7.38
2023-08-28T15:15:05.706Z,7.60
2023-08-28T15:17:54.877Z,7.45
2023-08-28T15:20:43.874Z,7.57
2023-08-28T15:23:34.168Z,8.45
2023-08-28T15:26:23.206Z,7.60
2023-08-28T15:29:12.100Z,7.43
2023-08-28T15:32:01.005Z,7.07
2023-08-28T15:34:50.091Z,6.63
2023-08-28T15:37:41.320Z,6.63
2023-08-28T15:40:31.638Z,7.22
2023-08-28T15:43:21.326Z,7.30
2023-08-28T15:46:10.174Z,6.78
2023-08-28T15:48:59.677Z,7.60
2023-08-28T15:51:48.487Z,7.25
2023-08-28T15:54:37.418Z,7.07
2023-08-28T15:57:30.598Z,6.82
2023-08-28T16:00:20.131Z,7.47
2023-08-28T16:03:09.323Z,7.88
2023-08-28T16:05:58.744Z,7.30
2023-08-28T16:08:48.114Z,6.95
2023-08-28T16:11:36.953Z,7.72
2023-08-28T16:14:27.503Z,7.57
2023-08-28T16:17:16.401Z,7.28
2023-08-28T16:20:06.391Z,7.35
2023-08-28T16:22:55.258Z,6.90
2023-08-28T16:25:45.118Z,7.43
2023-08-28T16:28:34.910Z,6.55
2023-08-28T16:31:25.299Z,6.10
2023-08-28T16:34:14.996Z,6.60
2023-08-28T16:37:04.269Z,6.63
2023-08-28T16:39:53.421Z,6.40
2023-08-28T16:42:44.944Z,6.25
2023-08-28T16:45:34.376Z,5.72
2023-08-28T16:48:25.268Z,5.97
2023-08-28T16:51:14.180Z,5.75
2023-08-28T16:54:03.571Z,5.70
2023-08-28T16:56:52.443Z,5.97
2023-08-28T16:59:42.356Z,5.00
2023-08-28T17:02:32.465Z,5.50
2023-08-28T17:05:23.498Z,5.28
2023-08-28T17:08:13.624Z,4.70
2023-08-28T17:11:02.617Z,5.00
2023-08-28T17:13:51.573Z,5.85
2023-08-28T17:16:42.574Z,6.07
2023-08-28T17:19:33.202Z,6.10
2023-08-28T17:22:24.062Z,6.15
2023-08-28T17:25:13.226Z,5.85
2023-08-28T17:28:02.188Z,7.07
2023-08-28T17:30:51.327Z,6.88
2023-08-28T17:33:41.258Z,6.30
2023-08-28T17:36:32.845Z,6.35
2023-08-28T17:39:27.821Z,6.40
2023-08-28T17:42:17.003Z,5.57
2023-08-28T17:45:06.553Z,5.47
2023-08-28T17:47:55.701Z,5.60
2023-08-28T17:50:46.738Z,5.60
2023-08-28T17:53:36.420Z,5.85
2023-08-28T17:56:27.036Z,5.82
2023-08-28T17:59:16.098Z,7.75
2023-08-28T18:02:05.544Z,5.32
2023-08-28T18:04:54.710Z,5.70
2023-08-28T18:07:43.918Z,5.57
2023-08-28T18:10:33.317Z,6.20
2023-08-28T18:13:23.719Z,5.47
2023-08-28T18:16:14.397Z,5.18
2023-08-28T18:19:04.158Z,5.70
2023-08-28T18:21:53.194Z,5.93
2023-08-28T18:24:45.010Z,5.90
2023-08-28T18:27:35.205Z,4.63
2023-08-28T18:30:28.702Z,5.32
2023-08-28T18:33:17.661Z,5.03
2023-08-28T18:36:07.049Z,4.97
2023-08-28T18:38:56.243Z,5.47
2023-08-28T18:41:48.042Z,5.50
2023-08-28T18:44:44.976Z,5.05
2023-08-28T18:47:35.743Z,5.25
2023-08-28T18:50:24.974Z,5.32
2023-08-28T18:53:14.124Z,6.00
2023-08-28T18:56:03.733Z,4.57
2023-08-28T18:58:53.526Z,5.28
2023-08-28T19:01:43.184Z,5.07
2023-08-28T19:04:34.100Z,4.28
2023-08-28T19:07:23.294Z,4.38
2023-08-28T19:10:12.636Z,4.70
2023-08-28T19:13:01.577Z,4.72
2023-08-28T19:15:50.877Z,4.55
2023-08-28T19:18:40.304Z,4.35
2023-08-28T19:21:30.725Z,4.32
2023-08-28T19:24:19.688Z,4.78
2023-08-28T19:27:08.514Z,4.43
2023-08-28T19:29:57.769Z,4.78
2023-08-28T19:32:48.196Z,4.50
2023-08-28T19:35:37.596Z,4.93
2023-08-28T19:38:28.146Z,5.20
2023-08-28T19:41:17.466Z,5.28
2023-08-28T19:44:06.581Z,5.70
2023-08-28T19:46:55.779Z,5.18
2023-08-28T19:49:44.787Z,5.28
2023-08-28T19:52:34.131Z,5.30
2023-08-28T19:55:24.968Z,5.93
2023-08-28T19:58:13.764Z,6.00
2023-08-28T20:01:04.834Z,6.65
2023-08-28T20:03:54.269Z,6.53
2023-08-28T20:06:43.346Z,6.13
2023-08-28T20:09:32.543Z,6.10
2023-08-28T20:12:22.776Z,6.57
2023-08-28T20:15:12.152Z,5.72
2023-08-28T20:18:01.342Z,6.10
2023-08-28T20:20:51.292Z,5.78
2023-08-28T20:23:40.847Z,6.15
2023-08-28T20:26:30.159Z,6.45
2023-08-28T20:29:20.592Z,6.47
2023-08-28T20:32:10.590Z,6.38
2023-08-28T20:34:59.922Z,6.80
2023-08-28T20:37:49.354Z,6.25
2023-08-28T20:40:40.278Z,6.18
2023-08-28T20:43:29.365Z,5.90
2023-08-28T20:46:21.664Z,6.63
2023-08-28T20:49:10.859Z,6.50
2023-08-28T20:51:59.818Z,6.50
2023-08-28T20:54:48.852Z,6.43
2023-08-28T20:57:38.115Z,6.25
2023-08-28T21:00:26.981Z,6.40
2023-08-28T21:03:17.424Z,6.53
2023-08-28T21:06:06.492Z,6.75
2023-08-28T21:08:55.347Z,6.65
2023-08-28T21:11:44.543Z,7.05
2023-08-28T21:14:33.798Z,6.45
2023-08-28T21:17:22.783Z,7.00
2023-08-28T21:20:14.092Z,7.05
2023-08-28T21:23:02.940Z,6.75
2023-08-28T21:25:51.931Z,6.57
2023-08-28T21:28:41.328Z,7.13
2023-08-28T21:31:30.597Z,6.95
2023-08-28T21:34:19.517Z,6.82
2023-08-28T21:37:09.932Z,7.00
2023-08-28T21:39:59.081Z,7.15
2023-08-28T21:42:48.316Z,6.90
2023-08-28T21:45:37.426Z,6.60
2023-08-28T21:48:27.213Z,6.68
2023-08-28T21:51:35.242Z,7.05
2023-08-28T21:54:48.122Z,6.35
2023-08-28T21:57:56.067Z,6.50
2023-08-28T22:01:03.871Z,6.32
2023-08-28T22:04:11.922Z,6.70
2023-08-28T22:07:19.773Z,6.63
2023-08-28T22:10:35.889Z,6.30
2023-08-28T22:13:45.995Z,5.97
2023-08-28T22:16:35.111Z,6.18
2023-08-28T22:19:24.213Z,6.03
2023-08-28T22:22:13.467Z,5.60
2023-08-28T22:25:02.664Z,5.03
2023-08-28T22:27:54.340Z,5.53
2023-08-28T22:30:43.783Z,5.45
2023-08-28T22:33:32.932Z,5.47
2023-08-28T22:36:22.081Z,5.70
2023-08-28T22:39:11.362Z,5.45
2023-08-28T22:42:00.341Z,5.72
2023-08-28T22:44:51.149Z,5.60
2023-08-28T22:47:40.199Z,5.88
2023-08-28T22:50:29.548Z,5.50
2023-08-28T22:53:18.470Z,5.43
2023-08-28T22:56:07.509Z,5.53
2023-08-28T22:58:56.284Z,5.55
2023-08-28T23:01:46.647Z,5.30
2023-08-28T23:04:37.557Z,5.95
2023-08-28T23:07:26.731Z,5.60
2023-08-28T23:10:15.760Z,6.00
2023-08-28T23:13:05.099Z,5.70
2023-08-28T23:15:54.681Z,5.60
2023-08-28T23:18:45.519Z,6.20
2023-08-28T23:21:34.753Z,5.78
2023-08-28T23:24:24.285Z,6.20
2023-08-28T23:27:13.244Z,6.03
2023-08-28T23:30:03.644Z,5.70
2023-08-28T23:32:53.472Z,5.63
2023-08-28T23:35:45.302Z,5.93
2023-08-28T23:38:34.959Z,6.00
2023-08-28T23:41:23.837Z,5.60
2023-08-28T23:44:12.966Z,5.28
2023-08-28T23:47:02.153Z,5.53
2023-08-28T23:49:51.182Z,5.55
2023-08-28T23:52:42.190Z,5.75
2023-08-28T23:55:31.579Z,5.50
2023-08-28T23:58:20.394Z,6.18
